createdAt,value
2022-10-22T00:00:01.846Z,1001.8524012203558
2022-10-22T00:15:02.487Z,1002.092263373552
2022-10-22T00:30:02.160Z,1002.2913979197727
2022-10-22T00:45:01.854Z,1002.2777683345299
2022-10-22T01:00:02.470Z,1002.356171723874
2022-10-22T01:15:02.152Z,1002.4126229830567
2022-10-22T01:30:01.818Z,1002.5280911763264
2022-10-22T01:45:02.462Z,1002.3824698789151
2022-10-22T02:00:02.078Z,1002.3926685989167
2022-10-22T02:15:01.766Z,1002.4884947061032
2022-10-22T02:30:02.503Z,1002.4102576283856
2022-10-22T02:45:02.213Z,1002.3712162970239
2022-10-22T03:00:01.898Z,1002.2940846119141
2022-10-22T03:15:02.530Z,1002.3029273750477
2022-10-22T03:30:02.213Z,1002.4222514480671
2022-10-22T03:45:01.894Z,1002.5234851959254
2022-10-22T04:00:02.567Z,1002.7238048050683
2022-10-22T04:15:02.182Z,1002.6336679960914
2022-10-22T04:30:02.427Z,1002.6820376144514
2022-10-22T04:45:02.117Z,1002.7745713346221
2022-10-22T05:00:01.776Z,1002.773978683631
2022-10-22T05:15:02.425Z,1002.8362202186478
2022-10-22T05:30:02.066Z,1002.9697551194606
2022-10-22T05:45:01.749Z,1003.00868519087
2022-10-22T06:00:02.382Z,1003.1721488285563
2022-10-22T06:15:02.075Z,1003.3204282345174
2022-10-22T06:30:01.782Z,1003.4781641219587
2022-10-22T07:00:02.065Z,1003.9451642447543
2022-10-22T07:15:01.786Z,1004.1203740654367
2022-10-22T07:30:02.479Z,1004.0930499765205
2022-10-22T07:45:02.205Z,1004.2718181991874
2022-10-22T08:00:01.863Z,1004.3563250123384
2022-10-22T08:15:02.507Z,1004.388574184323
2022-10-22T08:30:02.165Z,1004.4693338829223
2022-10-22T08:45:01.837Z,1004.5008418683474
2022-10-22T09:00:02.451Z,1004.6096688051016
2022-10-22T09:15:02.112Z,1004.7347293652099
2022-10-22T09:30:01.798Z,1004.871002505709
2022-10-22T09:45:02.441Z,1004.934020166261
2022-10-22T10:00:02.080Z,1005.1148605695525
2022-10-22T10:15:01.762Z,1005.2906948144821
2022-10-22T10:30:02.420Z,1005.4265382039198
2022-10-22T10:45:02.112Z,1005.5044996980307
2022-10-22T11:00:01.789Z,1005.5587180837347
2022-10-22T11:15:02.433Z,1005.6444547006591
2022-10-22T11:30:02.078Z,1005.727898855833
2022-10-22T11:45:01.762Z,1005.6359553132398
2022-10-22T12:00:02.422Z,1005.7460867852514
2022-10-22T12:15:02.069Z,1005.8661244795875
2022-10-22T12:30:01.777Z,1005.6880084876123
2022-10-22T12:45:02.420Z,1005.821739902172
2022-10-22T13:00:02.140Z,1005.9607674737853
2022-10-22T13:15:01.822Z,1005.919156153271
2022-10-22T13:30:02.563Z,1006.0132819875511
2022-10-22T13:45:02.212Z,1006.041915414829
2022-10-22T14:00:01.914Z,1006.203551587996
2022-10-22T14:15:01.792Z,1006.2811381915202
2022-10-22T14:30:02.583Z,1006.3843671714646
2022-10-22T14:45:02.284Z,1006.4284208246878
2022-10-22T15:00:02.014Z,1006.4416682193537
2022-10-22T15:15:01.724Z,1006.5415879655
2022-10-22T15:45:02.052Z,1006.7292477984674
2022-10-22T16:00:01.742Z,1006.7125258042547
2022-10-22T16:15:02.452Z,1006.8372200071267
2022-10-22T16:30:02.116Z,1007.0359793058917
2022-10-22T16:45:01.926Z,1007.2004119798885
2022-10-22T17:00:01.653Z,1007.3013580914244
2022-10-22T17:15:02.299Z,1007.4206262129941
2022-10-22T17:30:01.976Z,1007.5003123871849
2022-10-22T17:45:01.656Z,1007.5954066163266
2022-10-22T18:00:02.313Z,1007.7060651246481
2022-10-22T18:15:01.981Z,1007.9303721102992
2022-10-22T18:30:01.710Z,1008.0473100301565
2022-10-22T18:45:02.415Z,1008.0757815429253
2022-10-22T19:00:02.062Z,1007.994081561942
2022-10-22T19:15:01.747Z,1007.8561016295976
2022-10-22T19:30:02.393Z,1008.0372097526072
2022-10-22T19:45:02.139Z,1008.1657234019476
2022-10-22T20:00:01.783Z,1008.0397734252057
2022-10-22T20:15:02.456Z,1008.1522991427354
2022-10-22T20:30:02.244Z,1008.1793479447506
2022-10-22T20:45:01.985Z,1008.1267909009064
2022-10-22T21:00:01.639Z,1008.0566937879706
2022-10-22T21:15:02.344Z,1008.0506654648706
2022-10-22T21:30:02.147Z,1008.1236952870631
2022-10-22T21:45:01.847Z,1008.055417347872
2022-10-22T22:00:02.714Z,1008.1724241385507
2022-10-22T22:15:02.392Z,1008.3360076220891
2022-10-22T22:30:02.081Z,1008.3567173338317
2022-10-22T22:45:01.759Z,1008.2542552306908
2022-10-22T23:00:02.435Z,1008.2888555092111
2022-10-22T23:15:02.124Z,1008.114116937219
2022-10-22T23:30:01.845Z,1008.0235543842848
2022-10-22T23:45:02.486Z,1007.8580418234603
